Time;durP1;ratioP1;P1;durP2;ratioP2;P2;SDS_P1;SDS_P2;PMS_P1;PMS_P2;Temp;Humidity;BMP_temperature;BMP_pressure;BME280_temperature;BME280_humidity;BME280_pressure;Samples;Min_cycle;Max_cycle;Signal;HPM_P1;HPM_P2
2022/05/06 00:00:24;;;;;;;21.77;15.85;;;12.60;99.90;;;;;;5012677;28;20132;-80
2022/05/06 00:02:51;;;;;;;21.42;15.05;;;12.60;99.90;;;;;;5012781;28;20141;-81
2022/05/06 00:05:19;;;;;;;20.70;14.35;;;12.70;99.90;;;;;;5013281;28;20057;-80
2022/05/06 00:07:47;;;;;;;20.08;13.73;;;12.80;99.90;;;;;;5013055;28;20137;-81
2022/05/06 00:10:15;;;;;;;21.95;14.52;;;12.90;99.90;;;;;;5013044;28;20085;-79
2022/05/06 00:12:42;;;;;;;20.63;15.18;;;12.90;99.90;;;;;;5012796;28;20057;-79
2022/05/06 00:15:11;;;;;;;23.20;15.50;;;12.90;99.90;;;;;;5013170;28;20389;-79
2022/05/06 00:17:38;;;;;;;23.42;16.60;;;12.90;99.90;;;;;;5012980;28;20136;-81
2022/05/06 00:20:07;;;;;;;23.15;16.05;;;12.90;99.90;;;;;;5013122;28;20507;-81
2022/05/06 00:22:34;;;;;;;23.25;16.77;;;12.90;99.90;;;;;;5012849;28;20142;-80
2022/05/06 00:25:03;;;;;;;24.25;15.95;;;12.90;99.90;;;;;;5012840;28;20085;-79
2022/05/06 00:27:30;;;;;;;23.25;16.38;;;12.90;99.90;;;;;;5012634;28;20081;-80
2022/05/06 00:29:57;;;;;;;23.05;16.15;;;12.90;99.90;;;;;;5012778;28;20085;-78
2022/05/06 00:32:24;;;;;;;22.52;16.50;;;12.90;99.90;;;;;;5012764;28;20100;-81
2022/05/06 00:34:51;;;;;;;25.10;17.33;;;12.90;99.90;;;;;;5012578;28;20134;-79
2022/05/06 00:37:18;;;;;;;22.42;15.43;;;12.80;99.90;;;;;;5012620;28;20069;-79
2022/05/06 00:39:46;;;;;;;22.08;15.88;;;12.90;99.90;;;;;;5012985;28;20049;-81
2022/05/06 00:42:14;;;;;;;22.95;16.48;;;12.80;99.90;;;;;;5012749;28;20133;-79
2022/05/06 00:44:41;;;;;;;23.60;16.75;;;12.80;99.90;;;;;;5012309;28;20203;-81
2022/05/06 00:47:09;;;;;;;23.83;17.52;;;12.80;99.90;;;;;;5012424;28;20479;-82
2022/05/06 00:49:37;;;;;;;32.38;19.23;;;12.70;99.90;;;;;;5012469;28;20100;-81
2022/05/06 00:52:06;;;;;;;25.35;17.23;;;12.40;99.90;;;;;;5012552;28;20085;-80
2022/05/06 00:54:37;;;;;;;26.70;17.17;;;12.40;99.90;;;;;;5012289;28;20062;-80
2022/05/06 00:57:05;;;;;;;23.35;16.70;;;12.50;99.90;;;;;;5012558;28;20050;-80
2022/05/06 01:00:17;;;;;;;24.00;16.25;;;12.60;99.90;;;;;;5012556;28;20480;-81
2022/05/06 01:02:23;;;;;;;24.63;16.50;;;12.70;99.90;;;;;;5012010;28;20054;-79
2022/05/06 01:04:50;;;;;;;23.50;16.88;;;12.70;99.90;;;;;;5012256;28;20050;-81
2022/05/06 01:07:18;;;;;;;22.83;16.75;;;12.70;99.90;;;;;;5012260;28;20133;-80
2022/05/06 01:09:46;;;;;;;25.17;17.02;;;12.70;99.90;;;;;;5013268;28;20077;-81
2022/05/06 01:12:13;;;;;;;24.52;16.40;;;12.70;99.90;;;;;;5016291;28;20115;-79
2022/05/06 01:14:42;;;;;;;24.23;16.98;;;12.60;99.90;;;;;;5016171;28;20133;-81
2022/05/06 01:17:09;;;;;;;21.13;15.60;;;12.70;99.90;;;;;;5016150;28;20470;-81
2022/05/06 01:19:36;;;;;;;23.65;16.55;;;12.70;99.90;;;;;;5016341;28;20065;-79
2022/05/06 01:22:05;;;;;;;26.13;16.60;;;12.70;99.90;;;;;;5016016;28;20045;-81
2022/05/06 01:24:32;;;;;;;24.17;17.27;;;12.60;99.90;;;;;;5016162;28;20153;-80
2022/05/06 01:27:04;;;;;;;23.90;16.55;;;12.70;99.90;;;;;;5016045;28;20046;-80
2022/05/06 01:29:32;;;;;;;24.45;16.85;;;12.70;99.90;;;;;;5018211;28;20054;-81
2022/05/06 01:32:01;;;;;;;25.17;16.42;;;12.70;99.90;;;;;;5017411;28;20042;-80
2022/05/06 01:34:32;;;;;;;23.95;15.93;;;12.80;99.90;;;;;;5016360;28;20053;-80
2022/05/06 01:37:04;;;;;;;27.63;18.35;;;12.80;99.90;;;;;;5015758;28;20046;-80
2022/05/06 01:39:36;;;;;;;25.17;18.00;;;12.50;99.90;;;;;;5015809;28;20137;-81
2022/05/06 01:42:06;;;;;;;25.15;17.15;;;12.50;99.90;;;;;;5015715;28;20128;-82
2022/05/06 01:44:39;;;;;;;27.25;18.40;;;12.60;99.90;;;;;;5015573;28;20156;-79
2022/05/06 01:47:12;;;;;;;28.08;18.63;;;12.40;99.90;;;;;;5015766;28;20108;-81
2022/05/06 01:49:40;;;;;;;24.77;17.85;;;12.40;99.90;;;;;;5015592;28;20053;-80
2022/05/06 01:52:16;;;;;;;28.88;19.98;;;12.30;99.90;;;;;;5015426;28;20072;-79
2022/05/06 01:54:44;;;;;;;26.42;18.92;;;12.20;99.90;;;;;;5015486;28;20096;-80
2022/05/06 01:57:11;;;;;;;25.63;18.13;;;12.10;99.90;;;;;;5015956;28;20053;-78
2022/05/06 01:59:38;;;;;;;26.00;17.33;;;12.20;99.90;;;;;;5015030;28;20132;-81
2022/05/06 02:02:05;;;;;;;26.90;18.40;;;12.30;99.90;;;;;;5015426;28;20089;-78
2022/05/06 02:07:18;;;;;;;26.90;18.67;;;12.30;99.90;;;;;;5015454;28;20189;-79
2022/05/06 02:09:45;;;;;;;26.70;18.10;;;12.30;99.90;;;;;;5015021;28;20068;-81
2022/05/06 02:12:13;;;;;;;24.88;17.60;;;12.30;99.90;;;;;;5015131;28;20081;-81
2022/05/06 02:14:40;;;;;;;23.08;16.25;;;12.40;99.90;;;;;;5015337;28;20464;-79
2022/05/06 02:17:08;;;;;;;23.45;15.10;;;12.40;99.90;;;;;;5014984;28;20138;-79
2022/05/06 02:19:35;;;;;;;24.17;16.95;;;12.40;99.90;;;;;;5014928;28;20539;-80
2022/05/06 02:22:02;;;;;;;25.40;17.02;;;12.50;99.90;;;;;;5014068;28;20476;-81
2022/05/06 02:24:30;;;;;;;23.40;17.08;;;12.40;99.90;;;;;;5014791;28;20049;-80
2022/05/06 02:26:57;;;;;;;24.10;16.55;;;12.50;99.90;;;;;;5014850;28;20124;-81
2022/05/06 02:29:24;;;;;;;27.02;18.05;;;12.60;99.90;;;;;;5014721;28;20100;-81
2022/05/06 02:34:36;;;;;;;26.02;17.77;;;12.60;99.90;;;;;;5014754;28;20386;-77
2022/05/06 02:37:04;;;;;;;25.25;17.00;;;12.60;99.90;;;;;;5014670;28;20474;-81
2022/05/06 02:39:32;;;;;;;25.58;17.52;;;12.60;99.90;;;;;;5014736;28;20078;-81
2022/05/06 02:41:59;;;;;;;23.60;16.77;;;12.60;99.90;;;;;;5014678;28;20079;-81
2022/05/06 02:44:26;;;;;;;24.05;16.30;;;12.60;99.90;;;;;;5014639;28;20049;-80
2022/05/06 02:46:53;;;;;;;27.05;17.55;;;12.60;99.90;;;;;;5014414;28;20069;-79
2022/05/06 02:49:20;;;;;;;25.33;16.70;;;12.60;99.90;;;;;;5014525;28;20136;-78
2022/05/06 02:51:49;;;;;;;23.63;15.90;;;12.70;99.90;;;;;;5014632;28;20054;-81
2022/05/06 02:54:21;;;;;;;22.95;15.43;;;12.70;99.90;;;;;;5014242;28;20046;-79
2022/05/06 02:56:51;;;;;;;23.98;16.33;;;12.70;99.90;;;;;;5014283;28;20407;-81
2022/05/06 02:59:18;;;;;;;24.13;15.98;;;12.70;99.90;;;;;;5014186;28;20096;-81
2022/05/06 03:01:45;;;;;;;22.95;16.48;;;12.60;99.90;;;;;;5013981;28;20096;-79
2022/05/06 03:04:13;;;;;;;23.60;16.15;;;12.60;99.90;;;;;;5014253;28;20136;-81
2022/05/06 03:06:42;;;;;;;23.05;16.02;;;12.60;99.90;;;;;;5014269;28;20064;-80
2022/05/06 03:09:09;;;;;;;24.45;16.77;;;12.60;99.90;;;;;;5014139;28;20473;-81
2022/05/06 03:11:36;;;;;;;29.95;17.77;;;12.50;99.90;;;;;;5014137;28;20050;-81
2022/05/06 03:14:05;;;;;;;27.33;18.35;;;12.40;99.90;;;;;;5013868;28;20096;-79
2022/05/06 03:16:32;;;;;;;23.65;16.20;;;12.30;99.90;;;;;;5014170;28;20126;-81
2022/05/06 03:19:00;;;;;;;23.23;15.82;;;12.30;99.90;;;;;;5013819;28;20054;-80
2022/05/06 03:21:28;;;;;;;25.67;17.05;;;12.30;99.90;;;;;;5013806;28;20081;-80
2022/05/06 03:23:56;;;;;;;22.95;16.42;;;12.20;99.90;;;;;;5013921;28;20064;-81
2022/05/06 03:26:23;;;;;;;23.90;16.63;;;12.20;99.90;;;;;;5013646;28;20132;-81
2022/05/06 03:28:52;;;;;;;23.60;16.23;;;12.20;99.90;;;;;;5013824;28;20507;-81
2022/05/06 03:31:20;;;;;;;25.17;17.63;;;12.10;99.90;;;;;;5014015;28;20045;-77
2022/05/06 03:33:49;;;;;;;31.23;20.02;;;12.00;99.90;;;;;;5013376;28;20077;-77
2022/05/06 03:36:16;;;;;;;25.98;17.67;;;11.90;99.90;;;;;;5014301;28;20053;-79
2022/05/06 03:38:43;;;;;;;26.40;17.70;;;12.10;99.90;;;;;;5013514;28;20464;-79
2022/05/06 03:41:11;;;;;;;24.42;17.33;;;12.10;99.90;;;;;;5013358;28;20093;-80
2022/05/06 03:43:38;;;;;;;28.05;18.83;;;12.10;99.90;;;;;;5013321;28;20046;-81
2022/05/06 03:46:05;;;;;;;26.63;18.20;;;11.90;99.90;;;;;;5014013;28;20050;-78
2022/05/06 03:48:35;;;;;;;23.80;16.95;;;12.00;99.90;;;;;;5013734;28;20551;-81
2022/05/06 03:53:47;;;;;;;26.63;18.10;;;12.10;99.90;;;;;;5013339;28;20057;-81
2022/05/06 03:56:14;;;;;;;28.35;18.63;;;12.10;99.90;;;;;;5013401;28;20137;-79
2022/05/06 03:58:42;;;;;;;26.42;18.42;;;12.00;99.90;;;;;;5013882;28;20169;-78
2022/05/06 04:01:09;;;;;;;25.17;17.13;;;12.10;99.90;;;;;;5013710;28;20050;-80
2022/05/06 04:03:38;;;;;;;23.05;15.88;;;12.10;99.90;;;;;;5015563;28;20049;-81
2022/05/06 04:06:06;;;;;;;22.42;15.57;;;12.20;99.90;;;;;;5015602;28;20125;-82
2022/05/06 04:08:33;;;;;;;25.00;16.35;;;12.20;99.90;;;;;;5013732;28;20053;-80
2022/05/06 04:11:00;;;;;;;23.88;14.95;;;12.20;99.90;;;;;;5013119;28;20081;-78
2022/05/06 04:13:28;;;;;;;23.70;15.35;;;12.20;99.90;;;;;;5016309;28;20081;-81
2022/05/06 04:15:55;;;;;;;20.70;14.43;;;12.30;99.90;;;;;;5015318;28;20053;-80
2022/05/06 04:18:22;;;;;;;23.05;15.93;;;12.30;99.90;;;;;;5013515;28;20092;-81
2022/05/06 04:23:37;;;;;;;24.13;15.43;;;12.30;99.90;;;;;;5013239;28;20053;-81
2022/05/06 04:26:07;;;;;;;22.98;15.90;;;12.40;99.90;;;;;;5012771;28;20557;-81
2022/05/06 04:28:36;;;;;;;24.33;16.58;;;12.30;99.90;;;;;;5012978;28;20141;-80
2022/05/06 04:31:03;;;;;;;26.10;17.95;;;12.10;99.90;;;;;;5012810;28;20135;-79
2022/05/06 04:33:31;;;;;;;23.88;16.50;;;12.10;99.90;;;;;;5013598;28;20085;-81
2022/05/06 04:36:00;;;;;;;21.95;16.48;;;12.00;99.90;;;;;;5013233;28;20096;-80
2022/05/06 04:38:28;;;;;;;23.67;16.48;;;12.10;99.90;;;;;;5013451;28;20100;-81
2022/05/06 04:40:56;;;;;;;23.10;15.63;;;12.10;99.90;;;;;;5012780;28;20053;-81
2022/05/06 04:43:23;;;;;;;20.20;14.52;;;12.10;99.90;;;;;;5013659;28;20134;-81
2022/05/06 04:45:50;;;;;;;22.77;15.80;;;12.20;99.90;;;;;;5012772;28;20136;-81
2022/05/06 04:48:18;;;;;;;23.95;15.90;;;12.20;99.90;;;;;;5013069;28;20100;-79
2022/05/06 04:50:46;;;;;;;23.33;15.00;;;12.20;99.90;;;;;;5012687;28;20400;-80
2022/05/06 04:53:15;;;;;;;20.90;14.75;;;12.20;99.90;;;;;;5012880;28;20460;-80
2022/05/06 04:55:45;;;;;;;26.20;16.83;;;12.20;99.90;;;;;;5012534;28;20141;-80
2022/05/06 04:58:14;;;;;;;25.17;16.23;;;12.20;99.90;;;;;;5013260;28;20053;-80
2022/05/06 05:00:41;;;;;;;25.92;17.00;;;12.10;99.90;;;;;;5011331;28;20061;-81
2022/05/06 05:03:09;;;;;;;23.55;16.58;;;12.10;99.90;;;;;;5012171;28;20157;-79
2022/05/06 05:05:36;;;;;;;22.85;15.95;;;12.00;99.90;;;;;;5013233;28;20081;-81
2022/05/06 05:08:03;;;;;;;23.73;16.20;;;12.10;99.90;;;;;;5013660;28;20046;-81
2022/05/06 05:10:32;;;;;;;24.33;16.88;;;11.90;99.90;;;;;;5012664;28;20140;-81
2022/05/06 05:12:59;;;;;;;23.05;15.90;;;11.80;99.90;;;;;;5013055;28;20085;-79
2022/05/06 05:15:26;;;;;;;24.52;15.80;;;11.90;99.90;;;;;;5012451;28;20153;-79
2022/05/06 05:17:53;;;;;;;24.65;16.77;;;11.90;99.90;;;;;;5012564;28;20142;-81
2022/05/06 05:20:20;;;;;;;24.88;16.10;;;11.90;99.90;;;;;;5012630;28;20077;-81
2022/05/06 05:22:47;;;;;;;24.52;17.13;;;11.90;99.90;;;;;;5012202;28;20081;-80
2022/05/06 05:25:14;;;;;;;25.85;16.20;;;12.00;99.90;;;;;;5012527;28;20100;-80
2022/05/06 05:27:43;;;;;;;25.63;17.30;;;12.00;99.90;;;;;;5012860;28;20140;-79
2022/05/06 05:30:13;;;;;;;25.38;16.15;;;12.00;99.90;;;;;;5012575;28;20140;-81
2022/05/06 05:32:40;;;;;;;24.67;15.02;;;12.10;99.90;;;;;;5012949;28;20085;-81
2022/05/06 05:35:09;;;;;;;23.30;15.80;;;12.20;99.90;;;;;;5012104;28;20046;-81
2022/05/06 05:37:36;;;;;;;20.45;14.15;;;12.20;99.90;;;;;;5012457;28;20104;-80
2022/05/06 05:40:05;;;;;;;19.70;14.35;;;12.20;99.90;;;;;;5012871;28;20480;-78
2022/05/06 05:42:32;;;;;;;20.08;14.30;;;12.20;99.90;;;;;;5012608;28;20443;-80
2022/05/06 05:50:30;;;;;;;21.63;14.70;;;12.50;99.90;;;;;;5012049;28;20419;-80
2022/05/06 05:52:58;;;;;;;20.92;13.85;;;12.50;99.90;;;;;;5012116;28;20061;-79
2022/05/06 05:55:25;;;;;;;19.80;14.35;;;12.50;99.90;;;;;;5012143;28;20585;-80
2022/05/06 05:57:52;;;;;;;19.92;14.27;;;12.50;99.90;;;;;;5014375;28;20069;-80
2022/05/06 06:00:21;;;;;;;21.38;14.55;;;12.40;99.90;;;;;;5015520;28;20480;-79
2022/05/06 06:02:48;;;;;;;21.08;14.48;;;12.50;99.90;;;;;;5015331;28;20049;-79
2022/05/06 06:05:15;;;;;;;19.85;14.43;;;12.50;99.90;;;;;;5015437;28;20136;-78
2022/05/06 06:07:42;;;;;;;20.25;13.88;;;12.50;99.90;;;;;;5015260;28;20532;-79
2022/05/06 06:10:10;;;;;;;20.70;13.98;;;12.60;99.90;;;;;;5015572;28;20081;-79
2022/05/06 06:12:39;;;;;;;21.67;14.88;;;12.60;99.90;;;;;;5015762;28;20462;-80
2022/05/06 06:15:08;;;;;;;21.90;14.27;;;12.50;99.90;;;;;;5015242;28;20439;-81
2022/05/06 06:17:36;;;;;;;23.35;14.43;;;12.50;99.90;;;;;;5015471;28;20149;-80
2022/05/06 06:20:05;;;;;;;18.50;13.02;;;12.60;99.90;;;;;;5015585;28;20132;-81
2022/05/06 06:22:32;;;;;;;18.42;12.77;;;12.70;99.90;;;;;;5017522;28;20555;-80
2022/05/06 06:24:59;;;;;;;20.45;14.30;;;12.60;99.90;;;;;;5016102;28;20084;-80
2022/05/06 06:27:28;;;;;;;21.92;15.57;;;12.60;99.90;;;;;;5015266;28;20077;-80
2022/05/06 06:29:55;;;;;;;20.67;14.60;;;12.60;99.90;;;;;;5014807;28;20514;-80
2022/05/06 06:32:22;;;;;;;21.27;14.15;;;12.50;99.90;;;;;;5015138;28;20133;-80
2022/05/06 06:34:54;;;;;;;19.38;13.15;;;12.60;99.90;;;;;;5014756;28;20081;-81
2022/05/06 06:37:22;;;;;;;20.85;13.95;;;12.60;99.90;;;;;;5014893;28;20574;-80
2022/05/06 06:39:49;;;;;;;17.52;12.98;;;12.50;99.90;;;;;;5007327;28;20052;-81
2022/05/06 06:42:16;;;;;;;16.10;11.70;;;12.50;99.90;;;;;;5014965;28;20081;-80
2022/05/06 06:44:43;;;;;;;18.25;12.63;;;12.60;99.90;;;;;;5014992;28;20133;-80
2022/05/06 06:47:11;;;;;;;16.63;11.02;;;12.50;99.90;;;;;;5015170;28;20153;-81
2022/05/06 06:49:38;;;;;;;15.65;10.57;;;12.50;99.90;;;;;;5014404;28;20455;-79
2022/05/06 06:52:08;;;;;;;14.65;11.27;;;12.50;99.90;;;;;;5014903;28;20558;-80
2022/05/06 06:54:35;;;;;;;14.32;10.45;;;12.50;99.90;;;;;;5014711;28;20050;-79
2022/05/06 06:57:03;;;;;;;12.65;8.68;;;12.60;99.90;;;;;;5014527;28;20096;-80
2022/05/06 06:59:30;;;;;;;13.40;8.48;;;12.70;99.90;;;;;;5014116;28;20050;-80
2022/05/06 07:02:00;;;;;;;13.52;9.57;;;12.70;99.90;;;;;;5014280;28;20111;-80
2022/05/06 07:04:27;;;;;;;13.43;9.77;;;12.70;99.90;;;;;;5014230;28;20046;-78
2022/05/06 07:12:53;;;;;;;14.93;9.75;;;12.70;99.90;;;;;;4972987;28;20128;-79
2022/05/06 07:15:20;;;;;;;13.00;9.32;;;12.70;99.90;;;;;;4997687;28;20132;-81
2022/05/06 07:17:48;;;;;;;12.68;9.35;;;12.80;99.90;;;;;;5013494;28;20112;-81
2022/05/06 07:20:18;;;;;;;11.30;8.30;;;12.80;99.90;;;;;;5014144;28;20060;-79
2022/05/06 07:22:45;;;;;;;14.40;9.35;;;12.80;99.90;;;;;;5013710;28;20561;-80
2022/05/06 07:25:14;;;;;;;12.32;9.30;;;12.70;99.90;;;;;;5013754;28;20081;-80
2022/05/06 07:27:43;;;;;;;13.77;9.75;;;12.70;99.90;;;;;;5013996;28;20546;-79
2022/05/06 07:30:12;;;;;;;13.63;9.07;;;12.60;99.90;;;;;;5014175;28;20408;-78
2022/05/06 07:32:39;;;;;;;14.57;9.75;;;12.70;99.90;;;;;;5014121;28;20111;-80
2022/05/06 07:35:08;;;;;;;15.70;9.98;;;12.70;99.90;;;;;;5014047;28;20073;-81
2022/05/06 07:37:35;;;;;;;13.18;8.93;;;12.80;99.90;;;;;;5013412;28;20061;-80
2022/05/06 07:40:05;;;;;;;13.00;8.35;;;12.70;99.90;;;;;;5013805;28;20086;-80
2022/05/06 07:42:34;;;;;;;15.75;10.45;;;12.80;99.90;;;;;;5013793;28;20169;-79
2022/05/06 07:45:02;;;;;;;14.30;9.63;;;12.80;99.90;;;;;;5014375;28;20046;-81
2022/05/06 07:47:32;;;;;;;12.63;8.43;;;12.80;99.90;;;;;;5013941;28;20046;-80
2022/05/06 07:49:59;;;;;;;11.13;7.88;;;12.80;99.90;;;;;;5013643;28;20048;-79
2022/05/06 07:52:26;;;;;;;12.15;8.40;;;12.80;99.90;;;;;;5013800;28;20100;-80
2022/05/06 07:54:53;;;;;;;12.80;9.10;;;12.80;99.90;;;;;;5013517;28;20551;-82
2022/05/06 07:57:20;;;;;;;13.13;8.35;;;12.70;99.90;;;;;;5013596;28;20046;-80
2022/05/06 07:59:49;;;;;;;10.98;7.88;;;12.80;99.90;;;;;;5013630;28;20089;-79
2022/05/06 08:05:00;;;;;;;;;;;12.80;99.90;;;;;;5014107;28;20104;-78
2022/05/06 08:07:27;;;;;;;10.93;7.43;;;12.80;99.90;;;;;;5013253;28;19922;-79
2022/05/06 08:09:55;;;;;;;11.30;8.30;;;12.90;99.90;;;;;;5014033;28;20053;-77
2022/05/06 08:12:25;;;;;;;12.52;8.10;;;12.90;99.90;;;;;;5019254;28;20046;-80
2022/05/06 08:14:54;;;;;;;11.20;8.10;;;12.80;99.90;;;;;;5017743;28;20049;-79
2022/05/06 08:17:21;;;;;;;12.38;8.60;;;12.80;99.90;;;;;;5013859;28;20096;-78
2022/05/06 08:19:48;;;;;;;15.48;8.88;;;12.70;99.90;;;;;;5013672;28;20096;-79
2022/05/06 08:22:15;;;;;;;10.45;7.43;;;12.70;99.90;;;;;;5013156;28;20087;-79
2022/05/06 08:24:43;;;;;;;11.10;7.68;;;12.90;99.90;;;;;;5013337;28;20085;-78
2022/05/06 08:27:11;;;;;;;11.93;7.28;;;12.90;99.90;;;;;;5013360;28;20064;-79
2022/05/06 08:29:39;;;;;;;13.13;7.95;;;13.00;99.90;;;;;;5013501;28;20054;-79
2022/05/06 08:32:08;;;;;;;9.93;7.28;;;12.90;99.90;;;;;;5012962;28;20104;-78
2022/05/06 08:34:36;;;;;;;11.00;7.70;;;13.00;99.90;;;;;;5012705;28;20442;-78
2022/05/06 08:37:03;;;;;;;10.20;7.65;;;12.90;99.90;;;;;;5013001;28;20046;-79
2022/05/06 08:39:30;;;;;;;11.00;6.82;;;13.00;99.90;;;;;;5013025;28;20081;-80
2022/05/06 08:42:00;;;;;;;14.60;8.82;;;13.10;99.90;;;;;;5012782;28;20042;-80
2022/05/06 08:52:45;;;;;;;14.60;9.95;;;13.10;99.90;;;;;;5012775;28;20064;-80
2022/05/06 08:55:12;;;;;;;15.05;8.98;;;13.10;99.90;;;;;;5012424;28;20074;-80
2022/05/06 08:57:42;;;;;;;11.05;8.15;;;13.20;99.90;;;;;;5012812;28;20132;-79
2022/05/06 09:00:11;;;;;;;11.27;7.43;;;13.20;99.90;;;;;;5013043;28;20050;-82
2022/05/06 09:02:40;;;;;;;10.57;7.65;;;13.30;99.90;;;;;;5012414;28;20153;-79
2022/05/06 09:05:16;;;;;;;11.85;7.85;;;13.40;99.90;;;;;;5012787;28;20085;-81
2022/05/06 09:07:55;;;;;;;9.63;7.22;;;13.30;99.90;;;;;;5012335;28;20066;-81
2022/05/06 09:10:22;;;;;;;9.68;6.90;;;13.50;99.90;;;;;;5012234;28;20041;-81
2022/05/06 09:12:55;;;;;;;10.73;7.07;;;13.60;99.90;;;;;;5012336;28;20137;-80
2022/05/06 09:18:10;;;;;;;13.98;7.85;;;13.70;99.90;;;;;;5012824;28;20116;-79
2022/05/06 09:20:38;;;;;;;13.27;8.13;;;13.70;99.90;;;;;;5012568;28;20053;-81
2022/05/06 09:23:24;;;;;;;10.63;7.70;;;13.70;99.90;;;;;;5013106;28;20077;-78
2022/05/06 09:25:52;;;;;;;10.82;7.15;;;13.70;99.90;;;;;;5012767;28;20053;-79
2022/05/06 09:28:27;;;;;;;11.95;7.60;;;13.70;99.90;;;;;;5012263;28;20042;-80
2022/05/06 09:31:04;;;;;;;12.65;7.40;;;13.70;99.90;;;;;;5013249;28;20492;-80
2022/05/06 09:33:35;;;;;;;11.57;7.07;;;13.70;99.90;;;;;;5016705;28;20064;-79
2022/05/06 09:36:23;;;;;;;10.68;7.18;;;13.90;99.90;;;;;;5016425;28;20050;-81
2022/05/06 09:39:03;;;;;;;10.00;6.60;;;14.00;99.90;;;;;;5016305;28;20064;-80
2022/05/06 09:41:30;;;;;;;8.60;6.30;;;14.00;99.90;;;;;;5016032;28;20073;-81
2022/05/06 09:44:00;;;;;;;10.13;6.10;;;14.20;99.90;;;;;;5016137;28;20077;-80
2022/05/06 09:46:28;;;;;;;12.02;6.70;;;14.30;99.90;;;;;;5015858;28;20124;-79
2022/05/06 09:48:57;;;;;;;8.95;6.00;;;14.40;99.90;;;;;;5016249;28;20148;-79
2022/05/06 09:51:28;;;;;;;10.32;6.25;;;14.30;99.90;;;;;;5015579;28;20085;-81
2022/05/06 09:53:56;;;;;;;10.18;7.30;;;14.30;99.90;;;;;;5016010;28;20083;-80
2022/05/06 09:56:24;;;;;;;10.82;6.53;;;14.40;99.90;;;;;;5016117;28;20125;-81
2022/05/06 09:58:52;;;;;;;8.82;6.70;;;14.40;99.90;;;;;;5016215;28;20096;-80
2022/05/06 10:01:20;;;;;;;10.23;6.70;;;14.30;99.90;;;;;;5015659;28;20129;-81
2022/05/06 10:03:48;;;;;;;10.27;6.68;;;14.20;99.90;;;;;;5016390;28;20052;-81
2022/05/06 10:06:16;;;;;;;10.95;6.28;;;14.30;99.90;;;;;;5018656;28;20483;-79
2022/05/06 10:08:49;;;;;;;9.98;5.75;;;14.40;99.90;;;;;;5017790;28;20073;-79
2022/05/06 10:11:24;;;;;;;10.00;5.35;;;14.40;99.90;;;;;;5016390;28;20137;-78
2022/05/06 10:13:53;;;;;;;8.27;5.97;;;14.60;99.90;;;;;;5015569;28;20060;-79
2022/05/06 10:16:20;;;;;;;9.23;5.80;;;14.60;99.90;;;;;;5014895;28;20084;-79
2022/05/06 10:18:47;;;;;;;8.32;5.50;;;14.70;99.90;;;;;;5015559;28;20468;-81
2022/05/06 10:21:16;;;;;;;8.20;5.43;;;14.90;99.90;;;;;;5015947;28;20054;-79
2022/05/06 10:23:52;;;;;;;10.00;5.78;;;14.90;99.90;;;;;;5015713;28;20506;-81
2022/05/06 10:26:43;;;;;;;7.60;5.28;;;15.00;99.90;;;;;;5015156;28;20561;-78
2022/05/06 10:32:26;;;;;;;9.27;6.07;;;15.20;99.90;;;;;;4974767;28;20046;-81
2022/05/06 10:35:15;;;;;;;9.63;4.93;;;15.10;99.90;;;;;;5015708;28;20400;-80
2022/05/06 10:37:45;;;;;;;7.03;5.00;;;15.10;99.90;;;;;;5015742;28;20060;-79
2022/05/06 10:40:33;;;;;;;8.50;5.40;;;15.10;99.90;;;;;;5014908;28;20050;-82
2022/05/06 10:43:04;;;;;;;8.55;5.43;;;15.10;99.90;;;;;;5014394;28;20129;-81
2022/05/06 10:45:34;;;;;;;9.20;5.25;;;15.10;99.90;;;;;;5015097;28;20057;-80
2022/05/06 10:48:01;;;;;;;10.13;6.00;;;15.10;99.90;;;;;;5014344;28;20479;-79
2022/05/06 10:50:39;;;;;;;10.93;5.68;;;15.20;99.90;;;;;;5014670;28;20503;-79
2022/05/06 10:53:08;;;;;;;8.00;5.07;;;15.20;99.90;;;;;;5014797;28;20054;-81
2022/05/06 10:55:35;;;;;;;7.88;5.57;;;15.40;99.90;;;;;;5014323;28;20490;-81
2022/05/06 10:58:07;;;;;;;7.97;5.18;;;15.40;99.90;;;;;;5014257;28;20046;-81
2022/05/06 11:00:38;;;;;;;8.85;4.85;;;15.50;99.90;;;;;;5014606;28;20061;-81
2022/05/06 11:03:06;;;;;;;8.45;4.97;;;15.50;99.90;;;;;;5014461;28;20065;-81
2022/05/06 11:05:34;;;;;;;8.55;5.50;;;15.60;99.90;;;;;;5014667;28;20458;-81
2022/05/06 11:08:05;;;;;;;8.85;5.70;;;15.50;99.90;;;;;;5014382;28;20056;-79
2022/05/06 11:10:37;;;;;;;8.32;5.30;;;15.50;99.60;;;;;;5014314;28;20049;-79
2022/05/06 11:13:09;;;;;;;12.88;7.80;;;15.60;99.70;;;;;;5014760;28;20061;-77
2022/05/06 11:15:37;;;;;;;10.40;5.90;;;15.70;99.90;;;;;;5014779;28;20050;-81
2022/05/06 11:18:06;;;;;;;7.38;4.85;;;15.90;99.40;;;;;;5014809;28;20054;-81
2022/05/06 11:20:35;;;;;;;7.57;4.57;;;16.00;99.70;;;;;;5014664;28;20443;-79
2022/05/06 11:23:05;;;;;;;7.78;4.60;;;16.00;98.70;;;;;;5014137;28;20470;-82
2022/05/06 11:25:35;;;;;;;7.60;4.65;;;16.00;99.00;;;;;;5013998;28;20136;-81
2022/05/06 11:28:05;;;;;;;6.78;5.15;;;16.00;98.80;;;;;;5014004;28;20136;-81
2022/05/06 11:30:34;;;;;;;8.57;5.13;;;16.00;98.30;;;;;;5013828;28;20500;-79
2022/05/06 11:33:04;;;;;;;7.65;4.80;;;16.00;98.30;;;;;;5014487;28;20053;-80
2022/05/06 11:35:46;;;;;;;9.50;5.97;;;16.10;97.90;;;;;;5014586;28;20085;-80
2022/05/06 11:38:13;;;;;;;7.28;4.57;;;15.90;98.00;;;;;;5013755;28;20073;-81
2022/05/06 11:40:42;;;;;;;7.88;4.28;;;16.00;98.80;;;;;;5013759;28;20080;-80
2022/05/06 11:43:21;;;;;;;6.95;4.20;;;16.20;99.00;;;;;;5013874;28;20080;-80
2022/05/06 11:48:43;;;;;;;6.38;3.72;;;16.20;98.30;;;;;;5013644;28;20056;-80
2022/05/06 11:51:12;;;;;;;;;;;16.30;98.90;;;;;;5014068;28;20081;-80
2022/05/06 11:53:40;;;;;;;6.93;4.10;;;16.40;98.30;;;;;;5013511;28;20295;-77
2022/05/06 11:56:10;;;;;;;7.10;3.83;;;16.50;98.10;;;;;;5012993;28;20136;-79
2022/05/06 11:58:39;;;;;;;6.90;3.75;;;16.60;98.50;;;;;;5018548;28;20088;-81
2022/05/06 12:01:06;;;;;;;5.95;3.40;;;16.50;98.50;;;;;;5014864;28;20132;-80
2022/05/06 12:03:37;;;;;;;7.28;4.20;;;16.60;98.30;;;;;;5014482;28;20058;-77
2022/05/06 12:06:09;;;;;;;6.93;4.40;;;16.60;98.20;;;;;;5013333;28;20042;-78
2022/05/06 12:08:38;;;;;;;7.13;4.80;;;16.50;97.70;;;;;;5013367;28;20096;-79
2022/05/06 12:11:08;;;;;;;7.85;4.60;;;16.40;97.60;;;;;;5013054;28;20455;-80
2022/05/06 12:13:41;;;;;;;7.90;4.18;;;16.40;97.90;;;;;;5012887;28;20141;-78
2022/05/06 12:16:13;;;;;;;7.80;3.65;;;16.50;98.00;;;;;;5013225;28;20048;-77
2022/05/06 12:18:53;;;;;;;6.05;3.85;;;16.50;98.80;;;;;;5012851;28;20491;-80
2022/05/06 12:21:24;;;;;;;7.70;4.18;;;16.60;99.00;;;;;;5012961;28;20411;-79
2022/05/06 12:23:54;;;;;;;5.53;3.83;;;16.70;97.90;;;;;;5013014;28;20137;-80
2022/05/06 12:26:39;;;;;;;7.05;4.00;;;16.60;98.30;;;;;;5012790;28;20050;-82
2022/05/06 12:29:20;;;;;;;6.32;3.90;;;16.70;98.10;;;;;;5012948;28;20042;-80
2022/05/06 12:31:48;;;;;;;6.80;3.88;;;16.80;97.50;;;;;;5012617;28;20085;-78
2022/05/06 12:34:16;;;;;;;5.88;3.45;;;16.90;97.70;;;;;;5012800;28;20049;-79
2022/05/06 12:36:43;;;;;;;5.85;3.78;;;16.90;97.10;;;;;;5012625;28;20096;-79
2022/05/06 12:39:18;;;;;;;6.22;3.92;;;17.00;97.30;;;;;;5012522;28;20093;-78
2022/05/06 12:41:47;;;;;;;5.55;3.47;;;17.00;98.00;;;;;;5012521;28;20049;-77
2022/05/06 12:44:21;;;;;;;6.50;4.18;;;17.20;98.10;;;;;;5012518;28;20133;-79
2022/05/06 12:46:49;;;;;;;6.63;4.10;;;16.90;96.90;;;;;;5012473;28;20124;-81
2022/05/06 12:52:04;;;;;;;7.60;4.30;;;16.90;96.70;;;;;;5012554;28;20052;-79
2022/05/06 12:54:31;;;;;;;7.05;4.32;;;17.00;96.80;;;;;;5012566;28;20054;-79
2022/05/06 12:57:00;;;;;;;5.18;3.13;;;17.00;96.60;;;;;;5012572;28;20073;-80
2022/05/06 12:59:28;;;;;;;5.38;3.40;;;17.10;97.50;;;;;;5012347;28;20132;-79
2022/05/06 13:01:55;;;;;;;7.65;4.07;;;17.30;97.70;;;;;;5012110;28;20097;-78
2022/05/06 13:04:27;;;;;;;5.43;3.40;;;17.30;97.00;;;;;;5012094;28;20129;-79
2022/05/06 13:06:54;;;;;;;5.60;3.50;;;17.20;97.80;;;;;;5014957;28;20104;-79
2022/05/06 13:09:24;;;;;;;6.03;3.95;;;17.30;97.50;;;;;;5016321;28;20137;-79
2022/05/06 13:11:53;;;;;;;6.35;4.20;;;17.40;95.90;;;;;;5009262;28;20478;-77
2022/05/06 13:14:23;;;;;;;6.30;4.20;;;17.30;96.10;;;;;;5016291;28;20045;-79
2022/05/06 13:16:50;;;;;;;5.78;3.70;;;17.20;96.40;;;;;;5008841;28;20140;-78
2022/05/06 13:19:17;;;;;;;5.05;3.45;;;17.20;96.80;;;;;;5016404;28;20054;-80
2022/05/06 13:21:47;;;;;;;5.65;3.30;;;17.30;96.90;;;;;;5016319;28;20133;-79
2022/05/06 13:24:15;;;;;;;5.32;3.40;;;17.40;97.20;;;;;;5016188;28;20484;-77
2022/05/06 13:26:42;;;;;;;5.10;3.35;;;17.30;97.00;;;;;;5015877;28;20053;-79
2022/05/06 13:29:12;;;;;;;6.55;3.40;;;17.40;97.80;;;;;;5016149;28;20100;-82